createdAt,value
2018-08-31T00:00:41.365Z,88.73
2018-08-31T00:01:41.046Z,89.01
2018-08-31T00:02:41.029Z,89.11
2018-08-31T00:03:41.005Z,89.20
2018-08-31T00:04:40.998Z,88.82
2018-08-31T00:05:41.030Z,88.44
2018-08-31T00:07:41.238Z,88.87
2018-08-31T00:08:40.922Z,87.44
2018-08-31T00:09:41.004Z,88.15
2018-08-31T00:10:40.887Z,88.25
2018-08-31T00:11:40.867Z,88.11
2018-08-31T00:12:40.855Z,88.01
2018-08-31T00:13:40.989Z,87.73
2018-08-31T00:14:41.119Z,87.54
2018-08-31T00:15:40.798Z,87.92
2018-08-31T00:17:40.770Z,87.87
2018-08-31T00:18:40.747Z,87.96
2018-08-31T00:19:40.733Z,87.25
2018-08-31T00:21:40.699Z,87.54
2018-08-31T00:25:41.097Z,88.06
2018-08-31T00:26:40.614Z,87.77
2018-08-31T00:28:40.574Z,87.68
2018-08-31T00:29:40.563Z,87.87
2018-08-31T00:30:40.549Z,88.54
2018-08-31T00:31:40.824Z,88.44
2018-08-31T00:33:40.493Z,88.63
2018-08-31T00:34:40.482Z,88.73
2018-08-31T00:36:40.437Z,88.73
2018-08-31T00:37:40.722Z,88.63
2018-08-31T00:39:40.396Z,88.34
2018-08-31T00:40:40.625Z,88.34
2018-08-31T00:41:40.355Z,88.11
2018-08-31T00:42:40.338Z,87.63
2018-08-31T00:43:40.621Z,87.92
2018-08-31T00:45:40.285Z,88.01
2018-08-31T00:47:40.500Z,87.73
2018-08-31T00:48:40.234Z,87.73
2018-08-31T00:49:40.515Z,86.96
2018-08-31T00:50:40.206Z,86.87
2018-08-31T00:51:40.183Z,86.58
2018-08-31T00:52:40.162Z,86.68
2018-08-31T00:53:40.143Z,85.82
2018-08-31T00:54:40.126Z,86.01
2018-08-31T00:55:40.411Z,86.20
2018-08-31T00:56:40.098Z,85.82
2018-08-31T00:57:40.079Z,86.01
2018-08-31T00:58:40.317Z,85.91
2018-08-31T00:59:40.091Z,85.72
2018-08-31T01:02:39.997Z,85.91
2018-08-31T01:03:40.278Z,86.30
2018-08-31T01:04:39.965Z,85.77
2018-08-31T01:05:39.952Z,85.39
2018-08-31T01:11:39.833Z,84.53
2018-08-31T01:13:39.902Z,83.77
2018-08-31T01:14:39.783Z,83.67
2018-08-31T01:15:39.769Z,83.87
2018-08-31T01:16:39.751Z,83.77
2018-08-31T01:18:40.117Z,83.87
2018-08-31T01:19:39.750Z,83.87
2018-08-31T01:20:39.782Z,84.06
2018-08-31T01:21:39.865Z,84.01
2018-08-31T01:22:39.644Z,83.58
2018-08-31T01:23:39.682Z,83.67
2018-08-31T01:24:39.618Z,83.67
2018-08-31T01:25:39.903Z,83.77
2018-08-31T01:26:40.034Z,83.77
2018-08-31T01:27:39.578Z,83.73
2018-08-31T01:28:39.568Z,83.77
2018-08-31T01:30:39.508Z,83.67
2018-08-31T01:34:39.735Z,83.64
2018-08-31T01:35:39.422Z,83.83
2018-08-31T01:36:39.510Z,83.92
2018-08-31T01:37:39.438Z,83.83
2018-08-31T01:39:39.401Z,83.64
2018-08-31T01:41:39.317Z,83.92
2018-08-31T01:43:39.577Z,83.83
2018-08-31T01:44:39.276Z,84.01
2018-08-31T01:45:39.259Z,83.83
2018-08-31T01:46:39.229Z,83.73
2018-08-31T01:47:39.208Z,83.73
2018-08-31T01:48:39.198Z,83.83
2018-08-31T01:50:39.154Z,83.73
2018-08-31T01:52:39.139Z,83.73
2018-08-31T01:54:39.137Z,83.83
2018-08-31T01:55:39.166Z,83.64
2018-08-31T02:01:38.965Z,83.16
2018-08-31T02:02:39.246Z,83.25
2018-08-31T02:03:38.929Z,83.44
2018-08-31T02:04:38.914Z,83.73
2018-08-31T02:06:38.877Z,84.01
2018-08-31T02:07:38.914Z,83.64
2018-08-31T02:08:39.141Z,83.92
2018-08-31T02:11:38.876Z,84.45
2018-08-31T02:12:38.770Z,83.88
2018-08-31T02:13:38.754Z,83.88
2018-08-31T02:14:39.032Z,84.16
2018-08-31T02:17:38.827Z,83.69
2018-08-31T02:18:38.658Z,84.30
2018-08-31T02:20:38.727Z,84.40
2018-08-31T02:21:38.914Z,84.20
2018-08-31T02:23:38.621Z,84.59
2018-08-31T02:24:38.566Z,84.69
2018-08-31T02:25:38.539Z,85.06
2018-08-31T02:26:38.519Z,84.69
2018-08-31T02:27:38.807Z,84.78
2018-08-31T02:29:38.518Z,85.16
2018-08-31T02:31:38.428Z,85.35
2018-08-31T02:32:38.410Z,85.73
2018-08-31T02:33:38.690Z,85.93
2018-08-31T02:34:38.380Z,86.11
2018-08-31T02:35:38.355Z,86.40
2018-08-31T02:36:38.339Z,86.30
2018-08-31T02:37:38.325Z,86.40
2018-08-31T02:38:38.353Z,86.40
2018-08-31T02:39:38.286Z,86.49
2018-08-31T02:40:38.570Z,86.21
2018-08-31T02:41:38.303Z,86.49
2018-08-31T02:42:38.230Z,86.30
2018-08-31T02:43:38.226Z,86.21
2018-08-31T02:44:38.246Z,86.69
2018-08-31T02:45:38.261Z,86.69
2018-08-31T02:46:38.164Z,86.88
2018-08-31T02:47:38.449Z,86.49
2018-08-31T02:48:38.126Z,86.78
2018-08-31T02:49:38.107Z,86.49
2018-08-31T02:50:38.138Z,86.49
2018-08-31T02:51:38.172Z,86.49
2018-08-31T02:54:38.018Z,86.78
2018-08-31T02:55:38.304Z,86.49
2018-08-31T02:56:38.065Z,86.30
2018-08-31T02:57:37.968Z,86.78
2018-08-31T02:58:38.040Z,86.40
2018-08-31T02:59:38.026Z,86.40
2018-08-31T03:00:37.913Z,86.30
2018-08-31T03:01:37.890Z,85.78
2018-08-31T03:02:38.180Z,85.97
2018-08-31T03:03:37.855Z,86.93
2018-08-31T03:05:37.819Z,86.36
2018-08-31T03:07:37.928Z,86.26
2018-08-31T03:09:37.747Z,86.36
2018-08-31T03:10:38.028Z,86.26
2018-08-31T03:14:37.826Z,85.97
2018-08-31T03:15:37.758Z,85.78
2018-08-31T03:16:37.740Z,85.97
2018-08-31T03:17:37.904Z,85.78
2018-08-31T03:18:37.704Z,85.78
2018-08-31T03:19:37.692Z,86.07
2018-08-31T03:20:37.804Z,85.88
2018-08-31T03:22:37.525Z,86.07
2018-08-31T03:23:37.504Z,86.07
2018-08-31T03:24:37.881Z,86.16
2018-08-31T03:25:37.470Z,86.26
2018-08-31T03:27:37.724Z,86.26
2018-08-31T03:28:37.414Z,85.97
2018-08-31T03:29:37.405Z,86.26
2018-08-31T03:30:37.669Z,86.07
2018-08-31T03:31:37.476Z,85.50
2018-08-31T03:32:37.458Z,85.21
2018-08-31T03:33:37.368Z,85.31
2018-08-31T03:36:37.266Z,85.41
2018-08-31T03:38:37.533Z,85.60
2018-08-31T03:39:37.258Z,85.78
2018-08-31T03:40:37.192Z,85.50
2018-08-31T03:41:37.175Z,85.41
2018-08-31T03:42:37.209Z,85.31
2018-08-31T03:43:37.143Z,85.41
2018-08-31T03:44:37.420Z,85.41
2018-08-31T03:45:37.157Z,85.78
2018-08-31T03:47:37.227Z,85.97
2018-08-31T03:48:37.191Z,86.03
2018-08-31T03:49:37.027Z,85.97
2018-08-31T03:50:37.323Z,85.84
2018-08-31T03:51:37.252Z,86.07
2018-08-31T03:52:36.974Z,85.69
2018-08-31T03:53:37.006Z,85.60
2018-08-31T03:54:36.938Z,85.69
2018-08-31T03:55:36.919Z,85.78
2018-08-31T03:56:37.202Z,85.88
2018-08-31T03:57:36.884Z,85.78
2018-08-31T03:58:36.865Z,86.07
2018-08-31T03:59:36.848Z,86.26
2018-08-31T04:00:36.830Z,85.97
2018-08-31T04:01:36.812Z,85.88
2018-08-31T04:02:37.095Z,86.07
2018-08-31T04:03:36.775Z,86.45
2018-08-31T04:04:36.768Z,86.65
2018-08-31T04:05:36.740Z,87.12
2018-08-31T04:07:36.810Z,86.74
2018-08-31T04:08:36.692Z,86.65
2018-08-31T04:11:36.979Z,86.74
2018-08-31T04:12:36.631Z,87.02
2018-08-31T04:13:36.597Z,87.21
2018-08-31T04:14:36.575Z,87.60
2018-08-31T04:15:36.576Z,87.50
2018-08-31T04:16:36.541Z,87.69
2018-08-31T04:17:36.599Z,87.31
2018-08-31T04:18:36.855Z,87.98
2018-08-31T04:19:36.491Z,87.60
2018-08-31T04:20:36.464Z,87.60
2018-08-31T04:21:36.449Z,88.07
2018-08-31T04:22:36.428Z,87.60
2018-08-31T04:24:36.698Z,87.98
2018-08-31T04:25:36.431Z,88.55
2018-08-31T04:26:36.364Z,88.26
2018-08-31T04:27:36.359Z,88.45
2018-08-31T04:28:36.323Z,88.26
2018-08-31T04:29:36.319Z,88.26
2018-08-31T04:30:36.285Z,88.26
2018-08-31T04:32:36.554Z,88.55
2018-08-31T04:33:36.235Z,89.03
2018-08-31T04:34:37.967Z,88.36
2018-08-31T04:35:36.319Z,88.84
2018-08-31T04:36:36.281Z,88.17
2018-08-31T04:37:36.162Z,88.17
2018-08-31T04:38:36.139Z,89.12
2018-08-31T04:39:36.424Z,88.74
2018-08-31T04:40:36.154Z,89.03
2018-08-31T04:41:36.093Z,89.31
2018-08-31T04:42:36.070Z,88.93
2018-08-31T04:43:36.048Z,89.03
2018-08-31T04:45:36.315Z,89.31
2018-08-31T04:46:36.067Z,89.22
2018-08-31T04:47:35.975Z,89.40
2018-08-31T04:49:35.938Z,89.12
2018-08-31T04:50:35.917Z,89.22
2018-08-31T04:51:35.898Z,88.93
2018-08-31T04:52:36.381Z,89.22
2018-08-31T04:54:35.858Z,89.22
2018-08-31T04:55:35.878Z,89.40
2018-08-31T04:56:35.811Z,89.12
2018-08-31T04:57:35.794Z,89.69
2018-08-31T04:58:36.073Z,89.69
2018-08-31T04:59:35.755Z,89.31
2018-08-31T05:00:35.738Z,89.40
2018-08-31T05:01:35.770Z,89.50
2018-08-31T05:02:35.702Z,89.40
2018-08-31T05:03:35.768Z,89.12
2018-08-31T05:04:35.974Z,89.60
2018-08-31T05:05:35.647Z,89.69
2018-08-31T05:06:35.790Z,89.69
2018-08-31T05:07:35.614Z,89.89
2018-08-31T05:08:35.645Z,89.89
2018-08-31T05:09:35.632Z,89.89
2018-08-31T05:10:35.858Z,89.69
2018-08-31T05:11:35.537Z,89.79
2018-08-31T05:12:35.527Z,89.69
2018-08-31T05:13:35.555Z,89.89
2018-08-31T05:14:35.488Z,90.08
2018-08-31T05:15:35.469Z,90.45
2018-08-31T05:16:35.757Z,90.08
2018-08-31T05:17:35.435Z,90.26
2018-08-31T05:18:35.827Z,90.36
2018-08-31T05:20:35.378Z,90.08
2018-08-31T05:21:35.360Z,90.64
2018-08-31T05:22:35.651Z,90.26
2018-08-31T05:23:35.323Z,90.93
2018-08-31T05:24:35.309Z,90.74
2018-08-31T05:25:35.290Z,90.45
2018-08-31T05:26:35.271Z,90.50
2018-08-31T05:27:35.248Z,90.50
2018-08-31T05:28:35.582Z,90.59
2018-08-31T05:29:35.213Z,90.59
2018-08-31T05:30:35.196Z,90.98
2018-08-31T05:31:35.179Z,90.69
2018-08-31T05:32:35.162Z,91.17
2018-08-31T05:33:35.143Z,90.88
2018-08-31T05:34:35.174Z,90.98
2018-08-31T05:35:35.414Z,91.17
2018-08-31T05:36:35.092Z,91.46
2018-08-31T05:37:35.175Z,91.64
2018-08-31T05:38:35.057Z,91.17
2018-08-31T05:39:35.040Z,91.55
2018-08-31T05:40:35.025Z,92.22
2018-08-31T05:41:35.005Z,92.12
2018-08-31T05:42:35.287Z,92.12
2018-08-31T05:43:34.993Z,92.32
2018-08-31T05:44:35.454Z,92.12
2018-08-31T05:45:34.933Z,92.60
2018-08-31T05:46:34.911Z,93.27
2018-08-31T05:47:34.895Z,93.17
2018-08-31T05:48:34.881Z,93.17
2018-08-31T05:50:35.199Z,94.17
2018-08-31T05:51:34.823Z,93.98
2018-08-31T05:52:34.818Z,93.88
2018-08-31T05:53:34.917Z,94.36
2018-08-31T05:54:34.774Z,94.93
2018-08-31T05:55:34.754Z,94.93
2018-08-31T05:58:34.998Z,95.51
2018-08-31T05:59:34.689Z,95.03
2018-08-31T06:00:34.770Z,96.17
2018-08-31T06:01:34.705Z,95.51
2018-08-31T06:02:34.629Z,96.08
2018-08-31T06:03:34.614Z,96.51
2018-08-31T06:04:34.594Z,96.70
2018-08-31T06:05:34.876Z,96.89
2018-08-31T06:06:34.717Z,97.66
2018-08-31T06:07:34.580Z,97.85
2018-08-31T06:08:34.533Z,97.37
2018-08-31T06:09:34.519Z,97.56
2018-08-31T06:10:34.516Z,97.47
2018-08-31T06:11:35.890Z,97.66
2018-08-31T06:12:35.008Z,97.66
2018-08-31T06:13:34.435Z,97.85
2018-08-31T06:14:34.416Z,98.28
2018-08-31T06:15:34.417Z,97.89
2018-08-31T06:16:34.393Z,98.71
2018-08-31T06:17:35.783Z,99.14
2018-08-31T06:18:34.611Z,99.04
2018-08-31T06:19:40.898Z,99.14
2018-08-31T06:21:34.301Z,98.75
2018-08-31T06:22:34.285Z,99.14
2018-08-31T06:23:34.271Z,99.14
2018-08-31T06:24:34.553Z,99.71
2018-08-31T06:25:34.542Z,99.71
2018-08-31T06:26:34.224Z,99.80
2018-08-31T06:27:34.194Z,99.57
2018-08-31T06:28:34.179Z,99.99
2018-08-31T06:29:34.164Z,99.90
2018-08-31T06:30:34.191Z,99.85
2018-08-31T06:31:34.632Z,99.99
2018-08-31T06:32:34.118Z,99.99
2018-08-31T06:33:34.097Z,99.99
2018-08-31T06:34:34.083Z,99.99
2018-08-31T06:35:34.064Z,99.99
2018-08-31T06:36:34.145Z,99.99
2018-08-31T06:37:34.327Z,99.99
2018-08-31T06:38:34.009Z,99.99
2018-08-31T06:39:33.993Z,99.99
2018-08-31T06:40:33.991Z,99.99
2018-08-31T06:41:33.962Z,99.99
2018-08-31T06:42:33.943Z,99.99
2018-08-31T06:43:34.228Z,99.99
2018-08-31T06:44:33.908Z,99.99
2018-08-31T06:45:33.893Z,99.99
2018-08-31T06:46:33.881Z,99.99
2018-08-31T06:47:33.914Z,99.99
2018-08-31T06:48:33.843Z,99.99
2018-08-31T06:49:34.564Z,99.99
2018-08-31T06:50:33.809Z,99.99
2018-08-31T06:51:34.051Z,99.99
2018-08-31T06:52:33.902Z,99.99
2018-08-31T06:53:33.809Z,99.99
2018-08-31T06:54:33.744Z,99.99
2018-08-31T06:55:34.025Z,99.99
2018-08-31T06:56:34.316Z,99.99
2018-08-31T06:57:35.110Z,99.99
2018-08-31T06:58:33.680Z,99.99
2018-08-31T06:59:33.716Z,99.99
2018-08-31T07:00:33.848Z,99.99
2018-08-31T07:01:33.934Z,99.99
2018-08-31T07:02:33.608Z,99.99
2018-08-31T07:03:33.598Z,99.99
2018-08-31T07:04:34.184Z,99.99
2018-08-31T07:05:46.607Z,99.99
2018-08-31T07:06:33.550Z,99.99
2018-08-31T07:07:33.533Z,99.99
2018-08-31T07:08:33.830Z,99.99
2018-08-31T07:09:33.701Z,99.99
2018-08-31T07:10:33.486Z,99.99
2018-08-31T07:11:33.522Z,99.99
2018-08-31T07:12:33.743Z,99.99
2018-08-31T07:13:33.431Z,99.99
2018-08-31T07:14:34.045Z,99.99
2018-08-31T07:15:33.704Z,99.99
2018-08-31T07:16:33.391Z,99.99
2018-08-31T07:17:33.424Z,99.99
2018-08-31T07:19:33.345Z,99.99
2018-08-31T07:20:33.528Z,99.99
2018-08-31T07:21:33.312Z,99.99
2018-08-31T07:22:33.613Z,99.99
2018-08-31T07:23:33.346Z,99.99
2018-08-31T07:24:39.532Z,99.99
2018-08-31T07:25:33.252Z,99.99
2018-08-31T07:26:52.531Z,99.99
2018-08-31T07:27:33.221Z,99.99
2018-08-31T07:28:33.212Z,99.99
2018-08-31T07:29:34.904Z,99.99
2018-08-31T07:30:36.206Z,99.99
2018-08-31T07:31:33.364Z,99.99
2018-08-31T07:32:33.175Z,99.99
2018-08-31T07:33:33.738Z,99.99
2018-08-31T07:34:33.555Z,99.99
2018-08-31T07:35:33.143Z,99.99
2018-08-31T07:36:33.379Z,99.99
2018-08-31T07:37:58.740Z,99.99
2018-08-31T07:38:33.304Z,99.99
2018-08-31T07:39:33.045Z,99.99
2018-08-31T07:40:36.026Z,99.99
2018-08-31T07:41:33.608Z,99.99
2018-08-31T07:42:34.402Z,99.99
2018-08-31T07:43:39.542Z,99.99
2018-08-31T07:44:33.425Z,99.99
2018-08-31T07:45:33.148Z,99.99
2018-08-31T07:46:33.031Z,99.39
2018-08-31T07:47:32.915Z,99.99
2018-08-31T07:48:33.510Z,99.99
2018-08-31T07:49:32.883Z,99.99
2018-08-31T07:50:33.170Z,99.48
2018-08-31T07:51:32.857Z,99.68
2018-08-31T07:52:33.611Z,99.99
2018-08-31T07:53:32.836Z,99.01
2018-08-31T07:54:32.824Z,99.10
2018-08-31T07:55:32.798Z,99.58
2018-08-31T07:56:33.095Z,99.77
2018-08-31T07:57:32.775Z,99.68
2018-08-31T07:58:32.811Z,99.48
2018-08-31T07:59:32.747Z,99.73
2018-08-31T08:00:32.777Z,99.63
2018-08-31T08:01:32.966Z,98.81
2018-08-31T08:02:33.001Z,98.00
2018-08-31T08:03:32.684Z,99.82
2018-08-31T08:04:32.668Z,99.44
2018-08-31T08:05:32.748Z,99.73
2018-08-31T08:06:32.651Z,99.05
2018-08-31T08:07:33.353Z,98.38
2018-08-31T08:08:32.911Z,98.28
2018-08-31T08:09:32.600Z,98.67
2018-08-31T08:10:32.584Z,99.05
2018-08-31T08:11:45.304Z,98.96
2018-08-31T08:12:32.555Z,98.33
2018-08-31T08:13:33.197Z,98.38
2018-08-31T08:14:32.830Z,96.70
2018-08-31T08:15:51.719Z,96.13
2018-08-31T08:16:32.706Z,96.42
2018-08-31T08:17:35.520Z,97.47
2018-08-31T08:18:32.674Z,97.19
2018-08-31T08:19:33.202Z,96.42
2018-08-31T08:20:39.011Z,96.13
2018-08-31T08:21:33.043Z,95.26
2018-08-31T08:22:32.419Z,94.49
2018-08-31T08:23:32.402Z,93.92
2018-08-31T08:24:32.388Z,94.40
2018-08-31T08:25:32.983Z,94.21
2018-08-31T08:26:32.564Z,94.49
2018-08-31T08:27:33.764Z,93.63
2018-08-31T08:28:32.587Z,93.73
2018-08-31T08:29:35.357Z,92.48
2018-08-31T08:30:32.515Z,92.53
2018-08-31T08:31:32.597Z,94.07
2018-08-31T08:32:32.794Z,92.05
2018-08-31T08:33:32.272Z,92.63
2018-08-31T08:34:44.995Z,91.19
2018-08-31T08:35:51.520Z,90.90
2018-08-31T08:36:35.267Z,91.81
2018-08-31T08:37:33.685Z,91.52
2018-08-31T08:38:32.206Z,91.13
2018-08-31T08:39:32.799Z,88.73
2018-08-31T08:40:32.382Z,87.39
2018-08-31T08:41:32.162Z,87.49
2018-08-31T08:42:32.215Z,89.40
2018-08-31T08:43:32.139Z,88.06
2018-08-31T08:44:32.735Z,88.93
2018-08-31T08:45:45.207Z,86.33
2018-08-31T08:46:32.103Z,85.85
2018-08-31T08:47:33.502Z,86.43
2018-08-31T08:48:33.627Z,85.57
2018-08-31T08:49:32.068Z,85.18
2018-08-31T08:50:32.159Z,86.43
2018-08-31T08:51:32.290Z,84.94
2018-08-31T08:52:32.326Z,86.18
2018-08-31T08:53:32.125Z,83.87
2018-08-31T08:54:32.201Z,85.13
2018-08-31T08:55:31.985Z,85.89
2018-08-31T08:56:31.972Z,85.13
2018-08-31T08:57:32.015Z,85.99
2018-08-31T08:58:31.947Z,85.41
2018-08-31T09:00:32.466Z,90.37
2018-08-31T09:01:32.170Z,85.08
2018-08-31T09:02:44.635Z,83.36
2018-08-31T09:03:31.885Z,83.78
2018-08-31T09:04:31.878Z,85.61
2018-08-31T09:06:32.154Z,83.97
2018-08-31T09:07:31.835Z,85.22
2018-08-31T09:08:31.825Z,85.36
2018-08-31T09:09:31.864Z,80.07
2018-08-31T09:10:31.800Z,79.25
2018-08-31T09:11:51.069Z,78.28
2018-08-31T09:12:31.824Z,74.98
2018-08-31T09:13:32.267Z,75.17
2018-08-31T09:14:31.752Z,78.34
2018-08-31T09:15:31.789Z,77.67
2018-08-31T09:16:32.334Z,74.92
2018-08-31T09:17:31.719Z,74.92
2018-08-31T09:18:33.210Z,72.48
2018-08-31T09:20:31.987Z,73.38
2018-08-31T09:21:34.177Z,73.38
2018-08-31T09:22:31.658Z,73.67
2018-08-31T09:23:31.644Z,73.00
2018-08-31T09:24:31.725Z,72.48
2018-08-31T09:25:33.039Z,72.96
2018-08-31T09:26:31.912Z,72.48
2018-08-31T09:27:31.597Z,73.73
2018-08-31T09:28:31.584Z,73.06
2018-08-31T09:29:31.777Z,73.06
2018-08-31T09:30:31.610Z,73.25
2018-08-31T09:31:31.553Z,74.50
2018-08-31T09:32:31.875Z,73.11
2018-08-31T09:33:34.052Z,71.91
2018-08-31T09:34:31.513Z,72.16
2018-08-31T09:35:34.534Z,73.35
2018-08-31T09:36:31.695Z,71.91
2018-08-31T09:37:32.088Z,71.91
2018-08-31T09:38:31.851Z,73.15
2018-08-31T09:39:31.505Z,72.25
2018-08-31T09:40:31.443Z,74.21
2018-08-31T09:41:31.434Z,74.17
2018-08-31T09:42:32.834Z,74.46
2018-08-31T09:43:31.410Z,73.69
2018-08-31T09:44:32.303Z,73.98
2018-08-31T09:45:31.382Z,74.94
2018-08-31T09:46:31.374Z,77.34
2018-08-31T09:47:31.359Z,76.09
2018-08-31T09:49:31.416Z,74.94
2018-08-31T09:50:50.882Z,74.46
2018-08-31T09:51:31.461Z,73.69
2018-08-31T09:52:34.342Z,73.21
2018-08-31T09:53:31.291Z,73.02
2018-08-31T09:54:32.697Z,72.83
2018-08-31T09:55:31.276Z,74.27
2018-08-31T09:56:31.261Z,74.08
2018-08-31T09:57:31.708Z,78.30
2018-08-31T09:58:31.235Z,75.71
2018-08-31T10:00:31.220Z,73.15
2018-08-31T10:01:31.195Z,73.06
2018-08-31T10:03:31.768Z,75.81
2018-08-31T10:04:31.159Z,74.08
2018-08-31T10:05:31.145Z,74.55
2018-08-31T10:06:31.133Z,74.55
2018-08-31T10:07:31.120Z,72.58
2018-08-31T10:08:31.109Z,72.58
2018-08-31T10:09:31.098Z,72.58
2018-08-31T10:10:31.393Z,74.55
2018-08-31T10:11:31.274Z,77.06
2018-08-31T10:12:31.062Z,76.39
2018-08-31T10:13:31.350Z,78.34
2018-08-31T10:14:31.035Z,76.52
2018-08-31T10:15:34.058Z,75.90
2018-08-31T10:16:31.017Z,76.48
2018-08-31T10:17:32.715Z,78.59
2018-08-31T10:18:31.220Z,76.19
2018-08-31T10:19:30.988Z,73.02
2018-08-31T10:20:32.381Z,72.54
2018-08-31T10:21:30.963Z,73.31
2018-08-31T10:22:32.443Z,76.09
2018-08-31T10:23:30.931Z,74.94
2018-08-31T10:24:31.326Z,77.34
2018-08-31T10:25:31.514Z,76.86
2018-08-31T10:26:43.627Z,74.94
2018-08-31T10:27:30.885Z,77.53
2018-08-31T10:28:37.202Z,76.77
2018-08-31T10:29:31.479Z,75.13
2018-08-31T10:30:31.456Z,73.88
2018-08-31T10:31:34.172Z,75.71
2018-08-31T10:32:30.823Z,75.04
2018-08-31T10:34:30.845Z,73.31
2018-08-31T10:35:31.390Z,72.29
2018-08-31T10:36:30.770Z,72.19
2018-08-31T10:37:31.366Z,74.11
2018-08-31T10:38:31.249Z,73.73
2018-08-31T10:39:33.766Z,72.67
2018-08-31T10:40:30.925Z,71.91
2018-08-31T10:41:30.710Z,71.33
2018-08-31T10:42:30.697Z,71.61
2018-08-31T10:43:30.686Z,70.65
2018-08-31T10:44:30.678Z,69.50
2018-08-31T10:45:30.963Z,69.53
2018-08-31T10:46:30.670Z,68.57
2018-08-31T10:47:30.638Z,67.61
2018-08-31T10:48:30.627Z,67.71
2018-08-31T10:49:30.621Z,67.26
2018-08-31T10:50:30.623Z,66.58
2018-08-31T10:52:30.942Z,67.16
2018-08-31T10:53:31.995Z,67.16
2018-08-31T10:54:30.559Z,67.74
2018-08-31T10:55:30.547Z,66.81
2018-08-31T10:56:30.534Z,66.91
2018-08-31T10:57:30.725Z,67.97
2018-08-31T10:58:30.809Z,67.23
2018-08-31T10:59:30.503Z,65.59
2018-08-31T11:00:30.542Z,66.36
2018-08-31T11:01:31.894Z,64.43
2018-08-31T11:02:30.466Z,64.34
2018-08-31T11:03:43.488Z,63.95
2018-08-31T11:04:36.710Z,63.60
2018-08-31T11:05:30.636Z,63.85
2018-08-31T11:06:30.474Z,62.41
2018-08-31T11:07:30.613Z,62.80
2018-08-31T11:08:30.400Z,64.66
2018-08-31T11:09:30.392Z,61.77
2018-08-31T11:10:30.681Z,63.21
2018-08-31T11:11:30.578Z,61.96
2018-08-31T11:12:30.453Z,61.96
2018-08-31T11:13:30.551Z,61.74
2018-08-31T11:14:30.340Z,63.57
2018-08-31T11:15:31.743Z,62.35
2018-08-31T11:16:30.620Z,62.06
2018-08-31T11:17:30.514Z,61.10
2018-08-31T11:18:49.515Z,61.58
2018-08-31T11:19:30.287Z,62.06
2018-08-31T11:20:30.481Z,62.15
2018-08-31T11:21:30.318Z,61.48
2018-08-31T11:22:33.603Z,62.73
2018-08-31T11:23:33.280Z,63.06
2018-08-31T11:24:30.844Z,61.71
2018-08-31T11:25:36.495Z,62.09
2018-08-31T11:26:30.419Z,61.13
2018-08-31T11:27:56.285Z,60.68
2018-08-31T11:28:31.615Z,61.44
2018-08-31T11:29:30.189Z,60.28
2018-08-31T11:30:30.380Z,59.71
2018-08-31T11:31:30.377Z,60.77
2018-08-31T11:32:36.430Z,60.77
2018-08-31T11:33:36.721Z,61.22
2018-08-31T11:34:30.345Z,61.68
2018-08-31T11:35:30.741Z,61.77
2018-08-31T11:36:30.123Z,61.48
2018-08-31T11:37:30.315Z,61.44
2018-08-31T11:38:30.103Z,59.87
2018-08-31T11:40:30.442Z,61.45
2018-08-31T11:41:30.692Z,62.12
2018-08-31T11:42:30.671Z,63.34
2018-08-31T11:43:30.081Z,63.73
2018-08-31T11:44:34.742Z,64.40
2018-08-31T11:45:30.240Z,64.05
2018-08-31T11:46:30.683Z,63.02
2018-08-31T11:47:31.822Z,62.45
2018-08-31T11:48:30.094Z,60.74
2018-08-31T11:49:42.822Z,60.00
2018-08-31T11:50:29.988Z,60.00
2018-08-31T11:51:29.980Z,61.86
2018-08-31T11:52:30.071Z,58.19
2018-08-31T11:53:30.170Z,59.58
2018-08-31T11:54:30.859Z,59.78
2018-08-31T11:55:29.942Z,60.13
2018-08-31T11:56:31.347Z,61.35
2018-08-31T11:57:30.134Z,63.18
2018-08-31T11:58:31.377Z,62.77
2018-08-31T11:59:29.909Z,64.08
2018-08-31T12:00:29.898Z,63.79
2018-08-31T12:01:30.281Z,64.28
2018-08-31T12:02:36.154Z,64.56
2018-08-31T12:03:29.861Z,65.30
2018-08-31T12:04:36.269Z,65.30
2018-08-31T12:05:30.047Z,66.17
2018-08-31T12:06:29.834Z,65.30
2018-08-31T12:07:29.820Z,65.50
2018-08-31T12:08:30.111Z,65.59
2018-08-31T12:09:29.801Z,65.50
2018-08-31T12:10:29.847Z,65.59
2018-08-31T12:11:29.778Z,66.46
2018-08-31T12:12:31.184Z,67.22
2018-08-31T12:13:29.760Z,65.78
2018-08-31T12:14:29.749Z,66.55
2018-08-31T12:15:36.003Z,66.55
2018-08-31T12:16:29.726Z,66.84
2018-08-31T12:17:29.716Z,67.71
2018-08-31T12:18:29.913Z,66.94
2018-08-31T12:19:29.895Z,66.46
2018-08-31T12:20:29.679Z,67.03
2018-08-31T12:21:30.043Z,66.55
2018-08-31T12:22:29.657Z,64.53
2018-08-31T12:23:29.650Z,65.53
2018-08-31T12:25:02.959Z,64.18
2018-08-31T12:25:29.625Z,65.05
2018-08-31T12:26:29.816Z,63.31
2018-08-31T12:27:29.606Z,64.08
2018-08-31T12:28:31.306Z,63.60
2018-08-31T12:29:29.702Z,64.08
2018-08-31T12:31:03.102Z,62.54
2018-08-31T12:31:30.289Z,62.48
2018-08-31T12:32:29.672Z,62.96
2018-08-31T12:33:29.661Z,63.25
2018-08-31T12:34:30.147Z,64.40
2018-08-31T12:35:29.688Z,63.76
2018-08-31T12:36:29.705Z,62.09
2018-08-31T12:37:29.492Z,63.95
2018-08-31T12:38:29.479Z,62.99
2018-08-31T12:39:29.670Z,62.99
2018-08-31T12:40:29.763Z,63.54
2018-08-31T12:41:30.107Z,64.43
2018-08-31T12:42:32.468Z,64.43
2018-08-31T12:43:30.034Z,65.88
2018-08-31T12:44:29.414Z,65.88
2018-08-31T12:45:29.403Z,67.33
2018-08-31T12:46:31.140Z,65.50
2018-08-31T12:47:29.641Z,64.25
2018-08-31T12:48:29.983Z,64.56
2018-08-31T12:49:29.572Z,63.60
2018-08-31T12:50:29.564Z,65.24
2018-08-31T12:51:29.544Z,62.86
2018-08-31T12:52:29.775Z,61.71
2018-08-31T12:53:29.322Z,58.23
2018-08-31T12:54:29.319Z,58.23
2018-08-31T12:56:30.706Z,58.62
2018-08-31T12:57:32.322Z,58.52
2018-08-31T12:58:29.322Z,60.13
2018-08-31T12:59:32.285Z,61.29
2018-08-31T13:00:35.512Z,60.23
2018-08-31T13:01:42.227Z,60.32
2018-08-31T13:02:32.260Z,56.35
2018-08-31T13:03:29.215Z,55.87
2018-08-31T13:04:30.972Z,55.87
2018-08-31T13:05:29.448Z,56.12
2018-08-31T13:06:35.587Z,56.32
2018-08-31T13:07:35.566Z,58.15
2018-08-31T13:08:29.900Z,57.57
2018-08-31T13:09:29.357Z,56.70
2018-08-31T13:10:29.646Z,57.37
2018-08-31T13:11:29.132Z,59.69
2018-08-31T13:12:29.133Z,59.88
2018-08-31T13:13:29.115Z,59.62
2018-08-31T13:14:29.102Z,58.88
2018-08-31T13:15:29.092Z,58.20
2018-08-31T13:16:30.499Z,58.59
2018-08-31T13:17:29.576Z,57.62
2018-08-31T13:18:48.267Z,56.37
2018-08-31T13:19:29.053Z,57.05
2018-08-31T13:20:29.244Z,56.30
2018-08-31T13:21:30.445Z,56.59
2018-08-31T13:22:29.020Z,56.72
2018-08-31T13:23:29.062Z,56.07
2018-08-31T13:25:29.493Z,55.71
2018-08-31T13:26:30.397Z,55.35
2018-08-31T13:27:32.004Z,54.77
2018-08-31T13:28:29.163Z,56.15
2018-08-31T13:29:29.003Z,56.09
2018-08-31T13:30:28.943Z,52.80
2018-08-31T13:31:29.139Z,52.09
2018-08-31T13:32:30.338Z,53.28
2018-08-31T13:33:28.921Z,53.11
2018-08-31T13:34:28.907Z,52.44
2018-08-31T13:36:29.147Z,52.41
2018-08-31T13:38:03.891Z,52.99
2018-08-31T13:38:28.879Z,52.39
2018-08-31T13:39:28.867Z,52.77
2018-08-31T13:40:28.860Z,54.80
2018-08-31T13:41:28.976Z,52.67
2018-08-31T13:43:05.263Z,53.25
2018-08-31T13:43:28.965Z,52.77
2018-08-31T13:44:29.262Z,52.87
2018-08-31T13:45:30.611Z,53.55
2018-08-31T13:46:30.372Z,53.25
2018-08-31T13:47:29.600Z,53.83
2018-08-31T13:48:29.136Z,53.09
2018-08-31T13:49:29.182Z,53.86
2018-08-31T13:50:28.906Z,52.61
2018-08-31T13:51:29.450Z,56.37
2018-08-31T13:52:30.336Z,53.77
2018-08-31T13:53:28.765Z,54.83
2018-08-31T13:54:28.754Z,52.19
2018-08-31T13:55:29.072Z,54.63
2018-08-31T13:56:28.945Z,53.25
2018-08-31T13:58:02.295Z,51.71
2018-08-31T13:58:28.737Z,49.75
2018-08-31T13:59:28.724Z,50.98
2018-08-31T14:00:28.922Z,51.65
2018-08-31T14:01:28.707Z,52.72
2018-08-31T14:02:28.699Z,52.43
2018-08-31T14:03:28.691Z,52.91
2018-08-31T14:04:30.408Z,51.37
2018-08-31T14:05:28.677Z,51.17
2018-08-31T14:06:28.673Z,51.68
2018-08-31T14:07:29.270Z,50.81
2018-08-31T14:08:28.655Z,51.20
2018-08-31T14:09:28.707Z,50.81
2018-08-31T14:10:28.962Z,50.43
2018-08-31T14:11:28.837Z,50.69
2018-08-31T14:12:29.568Z,50.71
2018-08-31T14:13:28.823Z,51.87
2018-08-31T14:14:28.615Z,50.84
2018-08-31T14:15:33.856Z,52.80
2018-08-31T14:16:31.935Z,52.02
2018-08-31T14:17:30.013Z,51.95